createdAt,value
2023-08-29T00:01:20.159Z,98525.63
2023-08-29T00:03:47.487Z,98530.06
2023-08-29T00:06:14.679Z,98528.31
2023-08-29T00:08:41.925Z,98524.72
2023-08-29T00:11:09.145Z,98522.91
2023-08-29T00:13:36.458Z,98528.19
2023-08-29T00:16:04.203Z,98525.53
2023-08-29T00:18:31.518Z,98513.25
2023-08-29T00:20:58.755Z,98507.97
2023-08-29T00:23:25.923Z,98517.66
2023-08-29T00:25:53.170Z,98515.88
2023-08-29T00:28:21.054Z,98508.94
2023-08-29T00:30:48.543Z,98519.47
2023-08-29T00:33:15.763Z,98516.78
2023-08-29T00:35:42.955Z,98517.75
2023-08-29T00:38:12.360Z,98508.91
2023-08-29T00:40:39.696Z,98512.44
2023-08-29T00:43:07.029Z,98521.25
2023-08-29T00:45:40.525Z,98521.19
2023-08-29T00:48:09.836Z,98527.38
2023-08-29T00:50:39.022Z,98533.56
2023-08-29T00:53:07.546Z,98530.97
2023-08-29T00:55:36.431Z,98525.69
2023-08-29T00:58:05.289Z,98520.38
2023-08-29T01:00:35.059Z,98523.00
2023-08-29T01:03:04.001Z,98525.63
2023-08-29T01:05:34.040Z,98529.16
2023-08-29T01:08:02.856Z,98533.56
2023-08-29T01:11:07.392Z,98535.31
2023-08-29T01:13:55.370Z,98526.50
2023-08-29T01:16:37.842Z,98526.50
2023-08-29T01:19:16.317Z,98519.47
2023-08-29T01:22:26.744Z,98521.22
2023-08-29T01:25:53.235Z,98524.75
2023-08-29T01:28:24.214Z,98529.19
2023-08-29T01:30:52.302Z,98534.38
2023-08-29T01:33:21.032Z,98529.97
2023-08-29T01:35:48.974Z,98535.22
2023-08-29T01:38:19.349Z,98534.31
2023-08-29T01:40:47.003Z,98541.34
2023-08-29T01:43:14.308Z,98542.22
2023-08-29T01:45:41.696Z,98538.72
2023-08-29T01:48:12.549Z,98538.78
2023-08-29T01:50:42.792Z,98543.22
2023-08-29T01:53:10.356Z,98537.03
2023-08-29T01:55:40.119Z,98531.72
2023-08-29T01:58:09.035Z,98533.53
2023-08-29T02:00:38.109Z,98525.66
2023-08-29T02:03:05.770Z,98518.59
2023-08-29T02:05:33.431Z,98514.16
2023-08-29T02:08:00.743Z,98517.66
2023-08-29T02:10:32.053Z,98520.25
2023-08-29T02:12:59.378Z,98518.47
2023-08-29T02:15:26.637Z,98506.16
2023-08-29T02:17:54.544Z,98503.50
2023-08-29T02:20:22.038Z,98506.16
2023-08-29T02:22:49.316Z,98515.78
2023-08-29T02:25:16.719Z,98516.66
2023-08-29T02:27:43.902Z,98515.78
2023-08-29T02:30:11.832Z,98513.16
2023-08-29T02:32:40.972Z,98509.63
2023-08-29T02:35:09.553Z,98512.31
2023-08-29T02:37:36.937Z,98505.25
2023-08-29T02:40:11.420Z,98509.69
2023-08-29T02:42:38.571Z,98500.88
2023-08-29T02:45:06.779Z,98498.22
2023-08-29T02:47:34.014Z,98503.47
2023-08-29T02:50:01.230Z,98500.88
2023-08-29T02:52:28.546Z,98499.09
2023-08-29T02:54:55.962Z,98495.59
2023-08-29T02:57:25.802Z,98500.00
2023-08-29T02:59:53.229Z,98500.00
2023-08-29T03:02:21.090Z,98505.25
2023-08-29T03:04:48.305Z,98501.75
2023-08-29T03:07:15.661Z,98501.78
2023-08-29T03:09:42.847Z,98500.94
2023-08-29T03:12:10.156Z,98495.72
2023-08-29T03:14:37.615Z,98506.25
2023-08-29T03:17:04.904Z,98497.47
2023-08-29T03:19:32.296Z,98499.25
2023-08-29T03:21:59.493Z,98495.72
2023-08-29T03:24:27.068Z,98493.06
2023-08-29T03:26:54.297Z,98484.22
2023-08-29T03:29:21.813Z,98493.94
2023-08-29T03:31:49.282Z,98508.88
2023-08-29T03:34:16.744Z,98507.94
2023-08-29T03:36:45.627Z,98508.78
2023-08-29T03:39:13.136Z,98506.94
2023-08-29T03:41:40.325Z,98514.78
2023-08-29T03:44:09.371Z,98509.56
2023-08-29T03:46:36.625Z,98499.00
2023-08-29T03:49:05.013Z,98503.28
2023-08-29T03:51:32.224Z,98508.63
2023-08-29T03:53:59.646Z,98499.00
2023-08-29T03:56:28.032Z,98501.56
2023-08-29T03:58:55.289Z,98508.56
2023-08-29T04:01:22.606Z,98507.75
2023-08-29T04:03:53.571Z,98504.22
2023-08-29T04:06:22.157Z,98509.50
2023-08-29T04:08:49.418Z,98493.69
2023-08-29T04:11:16.817Z,98497.22
2023-08-29T04:13:44.256Z,98497.19
2023-08-29T04:16:11.537Z,98495.34
2023-08-29T04:18:38.932Z,98486.50
2023-08-29T04:21:06.141Z,98486.53
2023-08-29T04:23:33.413Z,98490.00
2023-08-29T04:26:02.246Z,98498.78
2023-08-29T04:28:29.731Z,98509.31
2023-08-29T04:31:07.665Z,98507.63
2023-08-29T04:33:34.928Z,98504.84
2023-08-29T04:36:02.136Z,98501.31
2023-08-29T04:38:29.981Z,98511.84
2023-08-29T04:40:57.290Z,98508.41
2023-08-29T04:43:24.648Z,98504.16
2023-08-29T04:45:53.444Z,98505.09
2023-08-29T04:48:20.697Z,98501.53
2023-08-29T04:50:47.907Z,98505.94
2023-08-29T04:53:16.580Z,98501.56
2023-08-29T04:55:44.541Z,98500.66
2023-08-29T04:58:11.894Z,98504.13
2023-08-29T05:00:39.287Z,98508.41
2023-08-29T05:03:06.745Z,98505.88
2023-08-29T05:05:34.121Z,98507.72
2023-08-29T05:08:05.474Z,98514.75
2023-08-29T05:10:33.209Z,98513.00
2023-08-29T05:13:00.410Z,98516.56
2023-08-29T05:15:27.719Z,98521.81
2023-08-29T05:17:55.120Z,98509.56
2023-08-29T05:21:00.767Z,98507.72
2023-08-29T05:23:48.181Z,98520.03
2023-08-29T05:26:21.816Z,98513.91
2023-08-29T05:28:57.667Z,98517.41
2023-08-29T05:31:27.076Z,98517.31
2023-08-29T05:33:54.762Z,98519.06
2023-08-29T05:36:26.107Z,98520.94
2023-08-29T05:39:01.807Z,98519.22
2023-08-29T05:41:55.876Z,98510.53
2023-08-29T05:44:23.432Z,98519.28
2023-08-29T05:46:50.703Z,98525.47
2023-08-29T05:49:17.947Z,98531.63
2023-08-29T05:51:46.264Z,98530.72
2023-08-29T05:54:13.496Z,98541.34
2023-08-29T05:56:41.018Z,98543.19
2023-08-29T05:59:08.383Z,98546.75
2023-08-29T06:01:36.398Z,98538.84
2023-08-29T06:04:05.721Z,98543.25
2023-08-29T06:06:33.248Z,98539.72
2023-08-29T06:09:00.832Z,98548.56
2023-08-29T06:11:29.809Z,98553.81
2023-08-29T06:13:57.074Z,98553.84
2023-08-29T06:16:24.389Z,98552.94
2023-08-29T06:18:51.660Z,98564.38
2023-08-29T06:21:19.929Z,98565.22
2023-08-29T06:23:47.074Z,98567.91
2023-08-29T06:26:17.160Z,98568.75
2023-08-29T06:28:44.546Z,98570.50
2023-08-29T06:31:11.895Z,98567.94
2023-08-29T06:33:41.470Z,98570.66
2023-08-29T06:36:08.833Z,98569.72
2023-08-29T06:38:36.131Z,98580.22
2023-08-29T06:41:04.326Z,98582.78
2023-08-29T06:43:31.945Z,98589.03
2023-08-29T06:45:59.204Z,98583.81
2023-08-29T06:48:26.855Z,98580.34
2023-08-29T06:50:54.261Z,98590.91
2023-08-29T06:53:21.833Z,98592.72
2023-08-29T06:55:51.201Z,98601.56
2023-08-29T06:58:18.518Z,98598.97
2023-08-29T07:00:45.800Z,98606.84
2023-08-29T07:03:13.407Z,98601.53
2023-08-29T07:05:40.966Z,98605.03
2023-08-29T07:08:11.960Z,98603.31
2023-08-29T07:10:39.285Z,98611.25
2023-08-29T07:13:06.576Z,98605.97
2023-08-29T07:15:33.782Z,98605.09
2023-08-29T07:18:01.651Z,98612.22
2023-08-29T07:20:31.291Z,98620.16
2023-08-29T07:22:58.916Z,98612.28
2023-08-29T07:25:43.640Z,98612.25
2023-08-29T07:28:16.841Z,98610.44
2023-08-29T07:30:53.702Z,98615.72
2023-08-29T07:33:21.491Z,98611.31
2023-08-29T07:35:49.668Z,98620.06
2023-08-29T07:38:19.436Z,98621.91
2023-08-29T07:40:47.906Z,98614.94
2023-08-29T07:43:16.765Z,98619.34
2023-08-29T07:45:44.237Z,98624.63
2023-08-29T07:48:11.897Z,98628.16
2023-08-29T07:50:39.335Z,98626.38
2023-08-29T07:53:06.679Z,98624.69
2023-08-29T07:55:33.916Z,98630.84
2023-08-29T07:58:02.820Z,98631.72
2023-08-29T08:00:30.565Z,98624.63
2023-08-29T08:02:57.944Z,98631.72
2023-08-29T08:05:26.139Z,98622.91
2023-08-29T08:07:54.185Z,98619.38
2023-08-29T08:10:21.747Z,98619.38
2023-08-29T08:12:49.404Z,98618.47
2023-08-29T08:15:17.814Z,98618.47
2023-08-29T08:17:46.247Z,98616.72
2023-08-29T08:20:13.868Z,98622.88
2023-08-29T08:22:42.745Z,98625.47
2023-08-29T08:25:11.289Z,98622.81
2023-08-29T08:27:41.447Z,98610.44
2023-08-29T08:30:09.909Z,98608.69
2023-08-29T08:32:37.512Z,98611.38
2023-08-29T08:35:07.803Z,98612.25
2023-08-29T08:37:36.994Z,98618.31
2023-08-29T08:40:11.981Z,98627.97
2023-08-29T08:42:42.382Z,98634.97
2023-08-29T08:45:11.546Z,98626.97
2023-08-29T08:47:40.059Z,98608.56
2023-08-29T08:50:12.755Z,98619.19
2023-08-29T08:52:43.117Z,98617.38
2023-08-29T08:55:10.642Z,98617.44
2023-08-29T08:57:38.872Z,98631.50
2023-08-29T09:00:08.821Z,98621.84
2023-08-29T09:02:38.906Z,98629.63
2023-08-29T09:05:09.902Z,98627.88
2023-08-29T09:07:42.858Z,98629.63
2023-08-29T09:10:17.883Z,98631.47
2023-08-29T09:12:56.487Z,98640.38
2023-08-29T09:15:26.758Z,98643.88
2023-08-29T09:17:55.731Z,98642.00
2023-08-29T09:20:31.726Z,98642.84
2023-08-29T09:22:59.185Z,98646.41
2023-08-29T09:25:27.616Z,98641.91
2023-08-29T09:27:55.373Z,98638.47
2023-08-29T09:30:23.104Z,98633.25
2023-08-29T09:32:52.728Z,98635.97
2023-08-29T09:35:24.268Z,98638.59
2023-08-29T09:37:55.194Z,98640.31
2023-08-29T09:43:03.923Z,98644.50
2023-08-29T09:45:33.764Z,98641.78
2023-08-29T09:48:09.469Z,98625.19
2023-08-29T09:50:38.448Z,98636.63
2023-08-29T09:53:06.826Z,98636.47
2023-08-29T09:55:50.566Z,98640.97
2023-08-29T09:58:18.979Z,98642.78
2023-08-29T10:00:47.184Z,98649.00
2023-08-29T10:03:15.688Z,98651.44
2023-08-29T10:05:46.388Z,98655.94
2023-08-29T10:08:44.161Z,98657.75
2023-08-29T10:11:11.461Z,98658.53
2023-08-29T10:13:42.496Z,98666.41
2023-08-29T10:16:10.668Z,98661.97
2023-08-29T10:18:38.596Z,98669.03
2023-08-29T10:21:06.513Z,98666.41
2023-08-29T10:23:36.832Z,98668.16
2023-08-29T10:26:07.407Z,98661.22
2023-08-29T10:28:36.830Z,98674.38
2023-08-29T10:31:06.978Z,98673.44
2023-08-29T10:33:38.287Z,98673.44
2023-08-29T10:36:10.409Z,98668.16
2023-08-29T10:38:41.317Z,98669.06
2023-08-29T10:41:09.056Z,98677.03
2023-08-29T10:43:36.869Z,98681.25
2023-08-29T10:46:24.541Z,98685.63
2023-08-29T10:48:52.886Z,98680.22
2023-08-29T10:51:25.976Z,98681.94
2023-08-29T10:53:55.435Z,98672.19
2023-08-29T10:56:29.279Z,98673.16
2023-08-29T10:58:56.989Z,98670.72
2023-08-29T11:01:28.299Z,98673.34
2023-08-29T11:03:59.568Z,98662.66
2023-08-29T11:06:51.696Z,98664.38
2023-08-29T11:09:24.870Z,98655.53
2023-08-29T11:12:13.955Z,98664.38
2023-08-29T11:14:58.267Z,98659.06
2023-08-29T11:17:27.515Z,98659.97
2023-08-29T11:20:03.043Z,98664.41
2023-08-29T11:22:31.064Z,98664.19
2023-08-29T11:24:59.633Z,98664.72
2023-08-29T11:27:32.123Z,98655.16
2023-08-29T11:32:34.749Z,98650.91
2023-08-29T11:35:01.966Z,98646.56
2023-08-29T11:37:32.215Z,98648.19
2023-08-29T11:40:03.282Z,98648.13
2023-08-29T11:42:51.994Z,98651.47
2023-08-29T11:45:45.718Z,98655.75
2023-08-29T11:48:12.262Z,98647.38
2023-08-29T11:50:42.858Z,98656.97
2023-08-29T11:53:10.205Z,98662.13
2023-08-29T11:55:39.410Z,98655.13
2023-08-29T11:58:07.965Z,98662.91
2023-08-29T12:00:35.480Z,98661.44
2023-08-29T12:03:02.997Z,98662.97
2023-08-29T12:05:32.161Z,98651.44
2023-08-29T12:07:59.503Z,98647.69
2023-08-29T12:10:28.164Z,98648.53
2023-08-29T12:12:56.606Z,98643.88
2023-08-29T12:15:43.721Z,98649.28
2023-08-29T12:18:23.757Z,98651.72
2023-08-29T12:20:52.017Z,98648.78
2023-08-29T12:23:29.695Z,98644.25
2023-08-29T12:25:59.427Z,98640.91
2023-08-29T12:28:27.449Z,98632.50
2023-08-29T12:30:56.003Z,98631.56
2023-08-29T12:33:24.861Z,98635.84
2023-08-29T12:35:52.660Z,98633.00
2023-08-29T12:38:21.273Z,98635.97
2023-08-29T12:40:48.492Z,98627.84
2023-08-29T12:43:18.156Z,98633.66
2023-08-29T12:45:58.361Z,98625.59
2023-08-29T12:48:28.422Z,98633.91
2023-08-29T12:50:55.570Z,98626.31
2023-08-29T12:53:23.834Z,98622.91
2023-08-29T12:55:54.931Z,98612.91
2023-08-29T12:58:22.219Z,98614.78
2023-08-29T13:00:49.539Z,98617.13
2023-08-29T13:03:19.313Z,98614.78
2023-08-29T13:05:48.137Z,98614.91
2023-08-29T13:08:16.727Z,98609.41
2023-08-29T13:10:44.200Z,98606.88
2023-08-29T13:13:11.408Z,98600.25
2023-08-29T13:15:50.498Z,98610.59
2023-08-29T13:18:25.377Z,98604.13
2023-08-29T13:20:53.008Z,98593.97
2023-08-29T13:23:20.388Z,98604.81
2023-08-29T13:25:48.996Z,98597.22
2023-08-29T13:28:16.739Z,98597.63
2023-08-29T13:30:44.092Z,98590.31
2023-08-29T13:33:12.815Z,98588.84
2023-08-29T13:35:40.442Z,98589.22
2023-08-29T13:38:10.936Z,98583.66
2023-08-29T13:40:42.809Z,98582.94
2023-08-29T13:43:12.212Z,98578.91
2023-08-29T13:45:39.534Z,98582.03
2023-08-29T13:48:08.424Z,98580.16
2023-08-29T13:50:38.968Z,98574.94
2023-08-29T13:53:08.369Z,98578.16
2023-08-29T13:55:36.202Z,98583.69
2023-08-29T13:58:06.982Z,98574.66
2023-08-29T14:00:35.502Z,98574.03
2023-08-29T14:03:03.461Z,98567.16
2023-08-29T14:05:33.004Z,98568.38
2023-08-29T14:08:05.345Z,98572.50
2023-08-29T14:10:36.923Z,98569.56
2023-08-29T14:13:04.558Z,98565.75
2023-08-29T14:15:31.889Z,98562.09
2023-08-29T14:18:01.963Z,98561.75
2023-08-29T14:20:29.256Z,98569.00
2023-08-29T14:23:01.942Z,98558.16
2023-08-29T14:25:29.572Z,98564.44
2023-08-29T14:28:05.975Z,98564.25
2023-08-29T14:30:33.539Z,98565.25
2023-08-29T14:33:02.694Z,98573.47
2023-08-29T14:35:33.929Z,98569.84
2023-08-29T14:38:01.188Z,98582.81
2023-08-29T14:40:39.495Z,98578.72
2023-08-29T14:43:07.188Z,98578.34
2023-08-29T14:45:42.038Z,98578.97
2023-08-29T14:48:10.659Z,98575.47
2023-08-29T14:50:37.978Z,98573.97
2023-08-29T14:53:05.205Z,98575.78
2023-08-29T14:55:39.892Z,98569.97
2023-08-29T14:58:07.504Z,98576.53
2023-08-29T15:00:35.058Z,98570.78
2023-08-29T15:03:10.399Z,98577.66
2023-08-29T15:05:38.112Z,98571.47
2023-08-29T15:08:18.028Z,98572.34
2023-08-29T15:10:46.020Z,98573.34
2023-08-29T15:13:16.808Z,98575.44
2023-08-29T15:15:45.669Z,98577.03
2023-08-29T15:18:14.950Z,98569.19
2023-08-29T15:20:44.031Z,98577.44
2023-08-29T15:23:13.962Z,98566.25
2023-08-29T15:25:41.714Z,98568.22
2023-08-29T15:28:12.534Z,98578.53
2023-08-29T15:30:40.485Z,98566.88
2023-08-29T15:33:07.824Z,98576.47
2023-08-29T15:35:35.141Z,98580.09
2023-08-29T15:38:03.199Z,98581.19
2023-08-29T15:40:30.640Z,98578.47
2023-08-29T15:43:00.628Z,98584.22
2023-08-29T15:45:28.405Z,98590.44
2023-08-29T15:47:56.920Z,98580.75
2023-08-29T15:50:29.645Z,98583.03
2023-08-29T15:52:57.038Z,98585.88
2023-08-29T15:55:24.315Z,98584.16
2023-08-29T15:57:53.015Z,98583.25
2023-08-29T16:00:20.860Z,98585.19
2023-08-29T16:02:49.560Z,98587.47
2023-08-29T16:05:17.089Z,98587.63
2023-08-29T16:07:47.633Z,98594.56
2023-08-29T16:10:15.915Z,98598.41
2023-08-29T16:12:46.597Z,98596.41
2023-08-29T16:15:17.691Z,98601.97
2023-08-29T16:17:45.196Z,98616.47
2023-08-29T16:20:14.247Z,98606.81
2023-08-29T16:22:41.708Z,98614.56
2023-08-29T16:25:10.160Z,98613.00
2023-08-29T16:27:39.317Z,98617.16
2023-08-29T16:30:08.815Z,98628.63
2023-08-29T16:32:39.044Z,98619.22
2023-08-29T16:35:07.676Z,98619.53
2023-08-29T16:37:39.201Z,98620.06
2023-08-29T16:40:11.076Z,98617.66
2023-08-29T16:42:38.929Z,98614.84
2023-08-29T16:45:07.931Z,98615.75
2023-08-29T16:47:35.409Z,98611.53
2023-08-29T16:50:03.033Z,98612.19
2023-08-29T16:52:30.270Z,98621.19
2023-08-29T16:54:57.707Z,98616.97
2023-08-29T16:57:25.589Z,98619.13
2023-08-29T17:00:00.594Z,98623.56
2023-08-29T17:02:28.731Z,98625.06
2023-08-29T17:04:56.378Z,98624.47
2023-08-29T17:07:24.092Z,98630.81
2023-08-29T17:09:52.267Z,98628.47
2023-08-29T17:12:23.757Z,98629.78
2023-08-29T17:14:52.731Z,98633.94
2023-08-29T17:17:21.124Z,98632.44
2023-08-29T17:19:48.515Z,98633.28
2023-08-29T17:22:15.806Z,98639.91
2023-08-29T17:25:40.150Z,98637.44
2023-08-29T17:28:07.648Z,98645.75
2023-08-29T17:30:35.227Z,98646.50
2023-08-29T17:33:03.382Z,98643.75
2023-08-29T17:35:30.648Z,98650.50
2023-08-29T17:37:57.906Z,98657.88
2023-08-29T17:40:25.245Z,98667.47
2023-08-29T17:42:52.588Z,98669.75
2023-08-29T17:45:22.688Z,98670.81
2023-08-29T17:47:50.018Z,98671.75
2023-08-29T17:50:17.251Z,98678.19
2023-08-29T17:52:45.741Z,98675.75
2023-08-29T17:55:13.158Z,98673.31
2023-08-29T17:57:40.509Z,98673.41
2023-08-29T18:00:08.862Z,98681.41
2023-08-29T18:02:37.698Z,98683.25
2023-08-29T18:05:05.706Z,98691.31
2023-08-29T18:07:32.871Z,98694.06
2023-08-29T18:10:15.510Z,98691.50
2023-08-29T18:12:42.965Z,98700.50
2023-08-29T18:15:11.773Z,98708.53
2023-08-29T18:17:39.120Z,98705.97
2023-08-29T18:20:07.770Z,98714.84
2023-08-29T18:22:37.723Z,98721.94
2023-08-29T18:25:06.413Z,98729.03
2023-08-29T18:27:33.708Z,98733.47
2023-08-29T18:30:00.941Z,98729.03
2023-08-29T18:32:32.648Z,98729.06
2023-08-29T18:34:59.999Z,98733.50
2023-08-29T18:37:27.700Z,98735.31
2023-08-29T18:39:56.450Z,98743.31
2023-08-29T18:42:23.774Z,98746.81
2023-08-29T18:44:51.088Z,98742.44
2023-08-29T18:47:18.431Z,98751.31
2023-08-29T18:49:45.660Z,98749.53
2023-08-29T18:52:13.474Z,98753.09
2023-08-29T18:54:40.678Z,98762.84
2023-08-29T18:57:09.822Z,98762.00
2023-08-29T18:59:37.048Z,98766.44
2023-08-29T19:02:04.536Z,98774.41
2023-08-29T19:04:31.773Z,98781.53
2023-08-29T19:06:59.319Z,98781.53
2023-08-29T19:09:27.898Z,98785.06
2023-08-29T19:11:55.189Z,98787.72
2023-08-29T19:14:23.750Z,98803.63
2023-08-29T19:16:50.924Z,98794.84
2023-08-29T19:19:18.189Z,98792.19
2023-08-29T19:21:45.489Z,98799.25
2023-08-29T19:24:13.190Z,98806.28
2023-08-29T19:26:41.613Z,98810.75
2023-08-29T19:29:09.113Z,98801.91
2023-08-29T19:31:36.989Z,98817.81
2023-08-29T19:34:05.470Z,98813.38
2023-08-29T19:36:33.170Z,98817.78
2023-08-29T19:39:12.256Z,98813.38
2023-08-29T19:41:45.642Z,98810.75
2023-08-29T19:44:17.047Z,98804.56
2023-08-29T19:46:46.345Z,98806.31
2023-08-29T19:49:14.205Z,98810.75
2023-08-29T19:51:41.584Z,98819.53
2023-08-29T19:54:08.901Z,98811.59
2023-08-29T19:56:36.161Z,98818.66
2023-08-29T19:59:04.461Z,98817.78
2023-08-29T20:01:32.874Z,98816.88
2023-08-29T20:04:00.107Z,98818.66
2023-08-29T20:06:29.901Z,98827.44
2023-08-29T20:08:57.121Z,98827.44
2023-08-29T20:11:24.503Z,98830.97
2023-08-29T20:13:51.776Z,98836.28
2023-08-29T20:16:19.051Z,98838.00
2023-08-29T20:18:46.390Z,98838.00
2023-08-29T20:21:13.913Z,98831.84
2023-08-29T20:23:55.460Z,98830.94
2023-08-29T20:26:28.911Z,98834.47
2023-08-29T20:28:56.282Z,98843.25
2023-08-29T20:31:23.711Z,98840.59
2023-08-29T20:33:51.114Z,98838.84
2023-08-29T20:36:18.411Z,98851.19
2023-08-29T20:38:45.617Z,98851.16
2023-08-29T20:41:13.134Z,98845.00
2023-08-29T20:43:40.380Z,98850.28
2023-08-29T20:46:08.487Z,98849.41
2023-08-29T20:48:35.806Z,98852.94
2023-08-29T20:51:04.063Z,98843.19
2023-08-29T20:53:36.265Z,98847.63
2023-08-29T20:56:07.004Z,98836.09
2023-08-29T20:58:35.474Z,98839.63
2023-08-29T21:01:04.313Z,98839.63
2023-08-29T21:03:33.813Z,98844.00
2023-08-29T21:06:01.261Z,98848.41
2023-08-29T21:08:28.800Z,98852.81
2023-08-29T21:10:56.162Z,98859.88
2023-08-29T21:13:24.914Z,98843.13
2023-08-29T21:15:52.359Z,98851.94
2023-08-29T21:18:20.597Z,98852.84
2023-08-29T21:20:59.943Z,98854.59
2023-08-29T21:23:27.928Z,98856.41
2023-08-29T21:25:55.566Z,98856.38
2023-08-29T21:28:26.331Z,98860.78
2023-08-29T21:30:55.527Z,98866.91
2023-08-29T21:33:24.010Z,98866.06
2023-08-29T21:35:52.074Z,98866.03
2023-08-29T21:38:21.913Z,98866.00
2023-08-29T21:40:49.261Z,98866.03
2023-08-29T21:43:23.193Z,98867.75
2023-08-29T21:45:57.356Z,98869.47
2023-08-29T21:48:26.090Z,98871.28
2023-08-29T21:50:54.321Z,98874.81
2023-08-29T21:53:23.030Z,98873.03
2023-08-29T21:55:52.266Z,98873.03
2023-08-29T21:58:20.187Z,98869.53
2023-08-29T22:00:53.600Z,98871.28
2023-08-29T22:03:24.915Z,98868.66
2023-08-29T22:05:53.353Z,98878.34
2023-08-29T22:08:22.077Z,98875.69
2023-08-29T22:10:51.268Z,98873.94
2023-08-29T22:13:19.409Z,98878.34
2023-08-29T22:15:46.867Z,98872.16
2023-08-29T22:18:14.330Z,98877.47
2023-08-29T22:20:41.853Z,98873.06
2023-08-29T22:23:09.159Z,98875.72
2023-08-29T22:25:36.769Z,98876.63
2023-08-29T22:28:08.939Z,98881.03
2023-08-29T22:30:39.538Z,98882.78
2023-08-29T22:33:09.338Z,98874.81
2023-08-29T22:35:36.767Z,98874.78
2023-08-29T22:38:05.086Z,98868.63
2023-08-29T22:40:32.552Z,98869.47
2023-08-29T22:43:00.178Z,98867.69
2023-08-29T22:45:27.731Z,98863.28
2023-08-29T22:47:55.011Z,98865.03
2023-08-29T22:50:22.341Z,98869.41
2023-08-29T22:52:50.617Z,98871.19
2023-08-29T22:55:17.865Z,98871.19
2023-08-29T22:57:45.070Z,98871.97
2023-08-29T23:00:15.619Z,98876.38
2023-08-29T23:02:43.343Z,98877.19
2023-08-29T23:05:11.168Z,98885.09
2023-08-29T23:07:38.432Z,98880.75
2023-08-29T23:10:06.413Z,98875.47
2023-08-29T23:12:34.155Z,98879.84
2023-08-29T23:15:01.470Z,98876.34
2023-08-29T23:17:29.356Z,98885.13
2023-08-29T23:19:56.606Z,98878.06
2023-08-29T23:22:23.917Z,98873.66
2023-08-29T23:24:51.153Z,98878.03
2023-08-29T23:27:18.781Z,98876.25
2023-08-29T23:29:46.041Z,98870.06
2023-08-29T23:32:13.286Z,98874.41
2023-08-29T23:34:40.587Z,98876.19
2023-08-29T23:37:08.241Z,98876.22
2023-08-29T23:39:35.536Z,98875.31
2023-08-29T23:42:03.091Z,98872.66
2023-08-29T23:44:30.603Z,98877.91
2023-08-29T23:46:57.980Z,98871.72
2023-08-29T23:49:28.290Z,98881.38
2023-08-29T23:51:55.745Z,98882.22
2023-08-29T23:54:23.485Z,98874.22
2023-08-29T23:56:50.708Z,98872.44
2023-08-29T23:59:17.968Z,98877.75
